createdAt,value
2023-05-24T00:03:08.707Z,1013.596
2023-05-24T00:23:07.588Z,1013.76
2023-05-24T00:43:07.390Z,1013.587
2023-05-24T01:03:08.656Z,1013.424
2023-05-24T01:23:07.769Z,1013.411
2023-05-24T01:43:07.584Z,1013.236
2023-05-24T02:03:08.945Z,1013.058
2023-05-24T02:23:07.835Z,1013.032
2023-05-24T02:43:07.732Z,1013.174
2023-05-24T03:03:09.069Z,1013.188
2023-05-24T03:23:08.092Z,1013.151
2023-05-24T03:43:08.079Z,1013.314
2023-05-24T04:03:09.346Z,1013.341
2023-05-24T04:23:07.525Z,1013.403
2023-05-24T04:43:07.836Z,1013.143
2023-05-24T05:03:09.520Z,1013.366
2023-05-24T05:23:07.614Z,1013.529
2023-05-24T05:43:07.542Z,1013.367
2023-05-24T06:03:09.033Z,1013.61
2023-05-24T06:23:07.065Z,1013.686
2023-05-24T06:43:07.897Z,1013.666
2023-05-24T07:03:09.187Z,1013.754
2023-05-24T07:23:07.990Z,1013.891
2023-05-24T07:43:07.972Z,1013.912
2023-05-24T08:03:09.574Z,1013.867
2023-05-24T08:23:07.631Z,1013.93
2023-05-24T08:43:07.576Z,1013.907
2023-05-24T09:03:08.870Z,1013.93
2023-05-24T09:23:08.024Z,1013.966
2023-05-24T09:43:08.152Z,1014.107
2023-05-24T10:03:09.737Z,1014.022
2023-05-24T10:23:07.777Z,1014.092
2023-05-24T10:43:07.754Z,1014.12
2023-05-24T11:03:09.323Z,1014.185
2023-05-24T11:23:07.503Z,1014.117
2023-05-24T11:43:07.540Z,1014.135
2023-05-24T12:03:09.207Z,1014.109
2023-05-24T12:23:07.266Z,1013.999
2023-05-24T12:43:07.247Z,1014.091
2023-05-24T13:03:08.338Z,1014.097
2023-05-24T13:23:07.475Z,1014.141
2023-05-24T13:43:07.524Z,1014.048
2023-05-24T14:03:08.781Z,1014.067
2023-05-24T14:23:08.157Z,1014.032
2023-05-24T14:43:07.181Z,1014.066
2023-05-24T15:03:09.060Z,1014.012
2023-05-24T15:23:07.148Z,1014.127
2023-05-24T15:43:07.332Z,1014.199
2023-05-24T16:03:08.724Z,1014.148
2023-05-24T16:23:07.812Z,1014.054
2023-05-24T16:43:07.870Z,1013.964
2023-05-24T17:03:09.401Z,1013.881
2023-05-24T17:23:07.616Z,1013.861
2023-05-24T17:43:07.754Z,1013.898
2023-05-24T18:03:08.825Z,1014.064
2023-05-24T18:23:07.765Z,1014.041
2023-05-24T18:43:07.891Z,1014.115
2023-05-24T19:03:09.102Z,1014.193
2023-05-24T19:23:08.116Z,1014.487
2023-05-24T19:43:07.311Z,1014.603
2023-05-24T20:03:08.790Z,1014.772
2023-05-24T20:23:07.880Z,1014.825
2023-05-24T20:43:08.088Z,1014.995
2023-05-24T21:03:09.888Z,1014.989
2023-05-24T21:23:07.868Z,1015.281
2023-05-24T21:43:07.993Z,1015.389
2023-05-24T22:03:09.471Z,1015.431
2023-05-24T22:23:07.400Z,1015.56
2023-05-24T22:43:07.177Z,1015.694
2023-05-24T23:03:08.393Z,1015.632
2023-05-24T23:23:07.430Z,1015.725
2023-05-24T23:43:07.341Z,1015.775
